Time;durP1;ratioP1;P1;durP2;ratioP2;P2;SDS_P1;SDS_P2;PMS_P1;PMS_P2;Temp;Humidity;BMP_temperature;BMP_pressure;BME280_temperature;BME280_humidity;BME280_pressure;Samples;Min_cycle;Max_cycle;Signal;HPM_P1;HPM_P2
2023/12/01 00:02:10;;;;;;;40.47;18.73;;;-1.00;99.90;;;;;;6179984;22;20005;-56
2023/12/01 00:04:35;;;;;;;38.42;17.35;;;-0.90;99.90;;;;;;6180027;23;20013;-54
2023/12/01 00:07:01;;;;;;;43.38;18.05;;;-0.90;99.90;;;;;;6179409;23;20005;-58
2023/12/01 00:09:27;;;;;;;45.50;16.88;;;-0.90;99.90;;;;;;6179582;22;20050;-57
2023/12/01 00:11:52;;;;;;;39.60;18.13;;;-0.90;99.90;;;;;;6153663;22;20006;-57
2023/12/01 00:14:18;;;;;;;38.78;16.98;;;-0.90;99.90;;;;;;6179960;22;20043;-57
2023/12/01 00:16:43;;;;;;;44.03;18.02;;;-0.90;99.90;;;;;;6179693;22;20005;-57
2023/12/01 00:19:09;;;;;;;36.08;16.35;;;-0.90;99.90;;;;;;6179734;22;20005;-56
2023/12/01 00:21:35;;;;;;;37.05;17.45;;;-0.90;99.90;;;;;;6179859;23;20028;-56
2023/12/01 00:24:00;;;;;;;37.78;16.38;;;-0.90;99.90;;;;;;6179747;22;20005;-57
2023/12/01 00:26:26;;;;;;;41.03;17.00;;;-0.80;99.90;;;;;;6179506;22;20418;-62
2023/12/01 00:28:51;;;;;;;35.03;16.15;;;-0.90;99.90;;;;;;6179903;22;20413;-57
2023/12/01 00:31:17;;;;;;;35.45;16.75;;;-0.90;99.90;;;;;;6179680;22;20012;-56
2023/12/01 00:33:42;;;;;;;31.05;14.77;;;-0.80;99.90;;;;;;6180300;22;20016;-56
2023/12/01 00:36:08;;;;;;;34.05;15.23;;;-0.90;99.90;;;;;;6179287;22;20060;-56
2023/12/01 00:38:34;;;;;;;38.92;15.75;;;-0.90;99.90;;;;;;6179750;22;20012;-55
2023/12/01 00:41:00;;;;;;;34.30;15.05;;;-0.80;99.90;;;;;;6180142;23;20478;-57
2023/12/01 00:43:26;;;;;;;34.20;13.98;;;-0.90;99.90;;;;;;6179770;23;20009;-56
2023/12/01 00:45:52;;;;;;;31.55;13.52;;;-0.90;99.90;;;;;;6179976;23;20341;-57
2023/12/01 00:48:17;;;;;;;33.05;14.40;;;-0.90;99.90;;;;;;6179398;23;20354;-57
2023/12/01 00:50:43;;;;;;;38.55;15.38;;;-0.90;99.90;;;;;;6179491;22;20013;-58
2023/12/01 00:53:09;;;;;;;36.53;15.00;;;-0.90;99.90;;;;;;6179700;22;20417;-58
2023/12/01 00:55:35;;;;;;;36.17;16.35;;;-0.90;99.90;;;;;;6179374;22;20016;-58
2023/12/01 00:58:01;;;;;;;35.78;14.88;;;-0.80;99.90;;;;;;6153213;23;20004;-57
2023/12/01 01:00:27;;;;;;;30.02;13.50;;;-0.90;99.90;;;;;;6179795;23;19997;-56
2023/12/01 01:02:52;;;;;;;30.42;12.50;;;-0.80;99.90;;;;;;6179730;22;20008;-57
2023/12/01 01:05:18;;;;;;;32.63;13.27;;;-0.90;99.90;;;;;;6179183;22;20481;-58
2023/12/01 01:07:44;;;;;;;35.63;13.88;;;-0.80;99.90;;;;;;6179167;23;20311;-57
2023/12/01 01:10:10;;;;;;;34.67;14.43;;;-0.80;99.90;;;;;;6179951;22;19997;-58
2023/12/01 01:12:36;;;;;;;27.90;12.18;;;-0.80;99.90;;;;;;6179484;22;20422;-57
2023/12/01 01:15:03;;;;;;;26.85;11.00;;;-0.80;99.90;;;;;;6179876;23;20106;-56
2023/12/01 01:17:32;;;;;;;32.55;12.70;;;-0.80;99.90;;;;;;6179344;23;20089;-56
2023/12/01 01:19:58;;;;;;;29.70;11.70;;;-0.80;99.90;;;;;;6179578;23;20006;-55
2023/12/01 01:22:24;;;;;;;27.60;11.65;;;-0.80;99.90;;;;;;6179582;23;20104;-58
2023/12/01 01:24:51;;;;;;;26.40;11.13;;;-0.80;99.90;;;;;;6179326;23;20005;-58
2023/12/01 01:27:16;;;;;;;25.92;11.88;;;-0.80;99.90;;;;;;6179719;23;20092;-55
2023/12/01 01:29:43;;;;;;;22.38;10.77;;;-0.80;99.90;;;;;;6179631;23;20562;-56
2023/12/01 01:32:09;;;;;;;22.88;10.90;;;-0.80;99.90;;;;;;6179658;23;20436;-54
2023/12/01 01:34:34;;;;;;;26.33;11.30;;;-0.80;99.90;;;;;;6179516;22;20016;-53
2023/12/01 01:37:00;;;;;;;25.95;11.50;;;-0.80;99.90;;;;;;6179647;22;20005;-57
2023/12/01 01:39:26;;;;;;;25.98;11.27;;;-0.80;99.90;;;;;;6179525;22;20001;-56
2023/12/01 01:41:53;;;;;;;29.30;13.35;;;-0.80;99.90;;;;;;6178988;23;20009;-57
2023/12/01 01:44:18;;;;;;;26.35;11.98;;;-0.80;99.90;;;;;;6179048;23;20072;-56
2023/12/01 01:46:45;;;;;;;25.58;11.18;;;-0.80;99.90;;;;;;6179270;22;20032;-58
2023/12/01 01:49:11;;;;;;;27.88;11.77;;;-0.70;99.90;;;;;;6178847;23;20001;-56
2023/12/01 01:51:37;;;;;;;23.98;11.98;;;-0.80;99.90;;;;;;6179574;22;20009;-56
2023/12/01 01:54:03;;;;;;;22.08;10.68;;;-0.70;99.90;;;;;;6179432;23;20080;-54
2023/12/01 01:56:31;;;;;;;22.90;11.23;;;-0.70;99.90;;;;;;6179583;23;20084;-57
2023/12/01 01:58:57;;;;;;;25.35;10.73;;;-0.70;99.90;;;;;;6179041;23;20425;-57
2023/12/01 02:01:25;;;;;;;21.17;10.50;;;-0.70;99.90;;;;;;6179043;23;20005;-55
2023/12/01 02:03:52;;;;;;;22.02;10.00;;;-0.70;99.90;;;;;;6179198;23;20013;-58
2023/12/01 02:06:18;;;;;;;18.27;9.52;;;-0.70;99.90;;;;;;6179378;22;20005;-57
2023/12/01 02:08:44;;;;;;;22.98;10.35;;;-0.70;99.90;;;;;;6179507;22;20005;-54
2023/12/01 02:11:10;;;;;;;17.40;8.55;;;-0.70;99.90;;;;;;6179473;23;19997;-55
2023/12/01 02:13:36;;;;;;;17.63;9.88;;;-0.60;99.90;;;;;;6179373;23;20012;-57
2023/12/01 02:16:02;;;;;;;18.08;9.40;;;-0.60;99.90;;;;;;6179499;22;20001;-54
2023/12/01 02:18:31;;;;;;;18.98;9.52;;;-0.60;99.90;;;;;;6179279;22;20020;-55
2023/12/01 02:20:58;;;;;;;16.98;8.45;;;-0.50;99.90;;;;;;6179075;23;20012;-56
2023/12/01 02:23:26;;;;;;;18.92;8.30;;;-0.60;99.90;;;;;;6178987;23;20048;-58
2023/12/01 02:25:52;;;;;;;19.20;9.90;;;-0.50;99.90;;;;;;6179157;23;20005;-57
2023/12/01 02:28:18;;;;;;;19.40;10.23;;;-0.60;99.90;;;;;;6179276;23;20012;-58
2023/12/01 02:30:50;;;;;;;17.92;8.85;;;-0.60;99.90;;;;;;6179063;23;20019;-58
2023/12/01 02:33:16;;;;;;;18.65;8.38;;;-0.60;99.90;;;;;;6179203;22;20001;-58
2023/12/01 02:35:50;;;;;;;17.45;8.68;;;-0.60;99.90;;;;;;6178919;23;20417;-58
2023/12/01 02:38:16;;;;;;;15.30;7.90;;;-0.60;99.90;;;;;;6179088;23;20003;-62
2023/12/01 02:40:49;;;;;;;16.90;8.68;;;-0.60;99.90;;;;;;6179143;23;19997;-58
2023/12/01 02:43:16;;;;;;;15.38;8.40;;;-0.60;99.90;;;;;;6179109;23;20005;-55
2023/12/01 02:45:42;;;;;;;18.48;8.75;;;-0.60;99.90;;;;;;6179287;23;20020;-58
2023/12/01 02:48:08;;;;;;;13.98;7.75;;;-0.60;99.90;;;;;;6178982;23;20001;-57
2023/12/01 02:50:34;;;;;;;19.05;9.23;;;-0.60;99.90;;;;;;6179328;23;20009;-57
2023/12/01 02:53:01;;;;;;;15.88;8.23;;;-0.60;99.90;;;;;;6178480;23;19997;-58
2023/12/01 02:55:27;;;;;;;17.70;8.38;;;-0.70;99.90;;;;;;6179016;22;20012;-56
2023/12/01 02:57:54;;;;;;;17.23;8.55;;;-0.70;99.90;;;;;;6179208;23;20005;-58
2023/12/01 03:00:20;;;;;;;21.05;10.75;;;-0.60;99.90;;;;;;6178782;23;20551;-57
2023/12/01 03:02:46;;;;;;;14.32;8.43;;;-0.60;99.90;;;;;;6179409;23;20027;-54
2023/12/01 03:05:12;;;;;;;15.38;8.25;;;-0.60;99.90;;;;;;6179336;23;20029;-56
2023/12/01 03:07:39;;;;;;;18.52;8.60;;;-0.60;99.90;;;;;;6178945;23;20425;-55
2023/12/01 03:10:09;;;;;;;19.92;9.18;;;-0.60;99.90;;;;;;6178790;23;20059;-57
2023/12/01 03:12:35;;;;;;;18.40;9.25;;;-0.60;99.90;;;;;;6153633;23;20005;-57
2023/12/01 03:15:01;;;;;;;17.20;9.20;;;-0.60;99.90;;;;;;6152650;23;20001;-57
2023/12/01 03:17:26;;;;;;;18.25;8.82;;;-0.60;99.90;;;;;;6178524;23;20012;-58
2023/12/01 03:19:52;;;;;;;16.77;8.52;;;-0.50;99.90;;;;;;6179193;22;20482;-58
2023/12/01 03:22:19;;;;;;;19.48;9.75;;;-0.50;99.90;;;;;;6179105;22;20013;-57
2023/12/01 03:24:47;;;;;;;16.80;8.70;;;-0.60;99.90;;;;;;6179080;22;20036;-55
2023/12/01 03:27:14;;;;;;;13.70;8.23;;;-0.60;99.90;;;;;;6178793;23;20007;-56
2023/12/01 03:29:40;;;;;;;17.23;8.60;;;-0.50;99.90;;;;;;6178802;23;20337;-54
2023/12/01 03:32:06;;;;;;;24.35;9.25;;;-0.50;99.90;;;;;;6178741;23;20029;-58
2023/12/01 03:34:32;;;;;;;16.38;8.60;;;-0.50;99.90;;;;;;6178996;22;20031;-57
2023/12/01 03:36:57;;;;;;;19.55;9.50;;;-0.60;99.90;;;;;;6178565;23;20005;-58
2023/12/01 03:39:23;;;;;;;18.15;9.80;;;-0.60;99.90;;;;;;6178836;23;20070;-55
2023/12/01 03:41:48;;;;;;;17.13;8.55;;;-0.60;99.90;;;;;;6178438;23;20009;-58
2023/12/01 03:44:15;;;;;;;20.02;9.02;;;-0.60;99.90;;;;;;6178625;23;20031;-58
2023/12/01 03:46:41;;;;;;;22.25;9.60;;;-0.60;99.90;;;;;;6178599;23;20033;-58
2023/12/01 03:49:07;;;;;;;18.35;9.15;;;-0.60;99.90;;;;;;6178695;23;19997;-57
2023/12/01 03:51:32;;;;;;;19.10;10.10;;;-0.50;99.90;;;;;;6179056;22;20005;-58
2023/12/01 03:53:58;;;;;;;18.77;9.85;;;-0.60;99.90;;;;;;6178200;22;20013;-57
2023/12/01 03:56:25;;;;;;;19.08;9.70;;;-0.50;99.90;;;;;;6178472;22;20001;-55
2023/12/01 03:58:56;;;;;;;23.50;10.65;;;-0.50;99.90;;;;;;6178408;23;20425;-55
2023/12/01 04:01:28;;;;;;;20.48;9.75;;;-0.50;99.90;;;;;;6178428;23;20011;-57
2023/12/01 04:03:54;;;;;;;18.08;9.65;;;-0.50;99.90;;;;;;6178876;23;20082;-58
2023/12/01 04:06:19;;;;;;;19.05;8.45;;;-0.50;99.90;;;;;;6179735;23;20410;-55
2023/12/01 04:08:45;;;;;;;20.50;9.73;;;-0.50;99.90;;;;;;6179878;23;20008;-57
2023/12/01 04:11:11;;;;;;;17.52;8.60;;;-0.60;99.90;;;;;;6179589;23;20430;-58
2023/12/01 04:13:37;;;;;;;18.40;9.93;;;-0.60;99.90;;;;;;6179835;23;20005;-57
2023/12/01 04:16:02;;;;;;;19.75;10.27;;;-0.60;99.90;;;;;;6179618;23;20345;-57
2023/12/01 04:18:29;;;;;;;21.95;10.63;;;-0.60;99.90;;;;;;6179660;23;20009;-57
2023/12/01 04:20:57;;;;;;;19.95;10.63;;;-0.60;99.90;;;;;;6179617;23;20005;-57
2023/12/01 04:23:23;;;;;;;17.27;8.77;;;-0.60;99.90;;;;;;6179777;23;20361;-56
2023/12/01 04:25:49;;;;;;;19.52;10.15;;;-0.60;99.90;;;;;;6180245;23;20001;-57
2023/12/01 04:28:15;;;;;;;24.30;11.15;;;-0.60;99.90;;;;;;6179557;22;20467;-57
2023/12/01 04:30:42;;;;;;;23.50;11.30;;;-0.60;99.90;;;;;;6179780;23;20314;-57
2023/12/01 04:33:08;;;;;;;21.58;12.20;;;-0.60;99.90;;;;;;6180074;23;20001;-55
2023/12/01 04:35:35;;;;;;;21.60;11.45;;;-0.60;99.90;;;;;;6179832;22;20028;-57
2023/12/01 04:38:05;;;;;;;27.27;12.63;;;-0.60;99.90;;;;;;6179858;23;20012;-57
2023/12/01 04:40:32;;;;;;;23.35;11.70;;;-0.50;99.90;;;;;;6154476;23;20502;-58
2023/12/01 04:42:58;;;;;;;25.90;12.40;;;-0.60;99.90;;;;;;6180439;23;20009;-57
2023/12/01 04:45:26;;;;;;;26.25;12.88;;;-0.50;99.90;;;;;;6179433;23;20007;-55
2023/12/01 04:47:53;;;;;;;27.38;13.15;;;-0.50;99.90;;;;;;6179695;23;20005;-57
2023/12/01 04:50:24;;;;;;;30.60;13.57;;;-0.50;99.90;;;;;;6179754;23;20348;-56
2023/12/01 04:53:01;;;;;;;25.25;11.85;;;-0.50;99.90;;;;;;6179608;23;20008;-57
2023/12/01 04:55:29;;;;;;;23.50;11.43;;;-0.50;99.90;;;;;;6179327;23;20485;-56
2023/12/01 04:57:56;;;;;;;29.48;12.05;;;-0.50;99.90;;;;;;6179245;23;20465;-55
2023/12/01 05:00:25;;;;;;;27.33;12.05;;;-0.50;99.90;;;;;;6179543;23;20433;-57
2023/12/01 05:02:54;;;;;;;23.52;10.80;;;-0.50;99.90;;;;;;6179610;22;20468;-57
2023/12/01 05:05:25;;;;;;;27.08;12.07;;;-0.60;99.90;;;;;;6179616;23;20004;-57
2023/12/01 05:07:57;;;;;;;25.48;10.05;;;-0.50;99.90;;;;;;6179235;23;20001;-56
2023/12/01 05:10:24;;;;;;;23.08;10.93;;;-0.50;99.90;;;;;;6179663;23;20001;-57
2023/12/01 05:12:55;;;;;;;23.27;11.70;;;-0.50;99.90;;;;;;6179294;23;20007;-58
2023/12/01 05:15:24;;;;;;;25.10;11.07;;;-0.40;99.90;;;;;;6179381;23;20016;-57
2023/12/01 05:17:52;;;;;;;24.35;11.20;;;-0.50;99.90;;;;;;6179377;23;20001;-56
2023/12/01 05:20:19;;;;;;;24.30;12.32;;;-0.50;99.90;;;;;;6179622;23;20001;-57
2023/12/01 05:22:55;;;;;;;24.38;9.75;;;-0.50;99.90;;;;;;6179524;23;20148;-58
2023/12/01 05:25:25;;;;;;;19.60;10.98;;;-0.50;99.90;;;;;;6179131;23;20015;-57
2023/12/01 05:27:55;;;;;;;21.38;11.13;;;-0.50;99.90;;;;;;6179809;23;20080;-57
2023/12/01 05:30:26;;;;;;;23.23;10.40;;;-0.50;99.90;;;;;;6153605;23;20006;-56
2023/12/01 05:32:53;;;;;;;18.90;9.25;;;-0.50;99.90;;;;;;6197074;22;20005;-55
2023/12/01 05:35:19;;;;;;;25.33;11.45;;;-0.50;99.90;;;;;;6179856;23;20009;-61
2023/12/01 05:37:50;;;;;;;20.60;8.75;;;-0.60;99.90;;;;;;6179811;23;20008;-57
2023/12/01 05:40:20;;;;;;;32.67;11.18;;;-0.60;99.90;;;;;;6179954;23;20001;-55
2023/12/01 05:42:47;;;;;;;21.55;10.43;;;-0.50;99.90;;;;;;6179572;23;20502;-57
2023/12/01 05:45:14;;;;;;;25.42;12.05;;;-0.60;99.90;;;;;;6179295;22;20013;-58
2023/12/01 05:47:44;;;;;;;24.10;10.73;;;-0.60;99.90;;;;;;6179924;23;20005;-56
2023/12/01 05:50:14;;;;;;;27.50;11.95;;;-0.60;99.90;;;;;;6176420;22;20013;-59
2023/12/01 05:52:41;;;;;;;25.13;11.25;;;-0.60;99.90;;;;;;6177648;23;20379;-60
2023/12/01 05:55:15;;;;;;;25.45;11.95;;;-0.60;99.90;;;;;;6177104;23;20005;-59
2023/12/01 05:57:45;;;;;;;24.10;12.27;;;-0.60;99.90;;;;;;6178008;23;20030;-59
2023/12/01 06:00:17;;;;;;;25.98;11.05;;;-0.60;99.90;;;;;;6176703;23;20344;-59
2023/12/01 06:02:46;;;;;;;24.45;11.88;;;-0.60;99.90;;;;;;6178460;22;20006;-60
2023/12/01 06:05:13;;;;;;;23.50;11.23;;;-0.60;99.90;;;;;;6176808;23;20019;-59
2023/12/01 06:07:42;;;;;;;26.65;12.32;;;-0.60;99.90;;;;;;6177887;23;20005;-59
2023/12/01 06:10:09;;;;;;;28.15;12.10;;;-0.60;99.90;;;;;;6177453;23;20001;-59
2023/12/01 06:12:37;;;;;;;26.65;11.32;;;-0.60;99.90;;;;;;6177417;23;20050;-60
2023/12/01 06:15:11;;;;;;;26.85;11.50;;;-0.60;99.90;;;;;;6207885;23;20007;-59
2023/12/01 06:17:43;;;;;;;25.73;12.25;;;-0.60;99.90;;;;;;6207596;23;20053;-59
2023/12/01 06:20:19;;;;;;;24.45;12.10;;;-0.60;99.90;;;;;;6207206;23;20013;-60
2023/12/01 06:22:47;;;;;;;21.35;11.25;;;-0.50;99.90;;;;;;6208053;23;20075;-59
2023/12/01 06:25:20;;;;;;;23.98;10.20;;;-0.50;99.90;;;;;;6207883;23;20011;-59
2023/12/01 06:27:46;;;;;;;29.70;11.05;;;-0.50;99.90;;;;;;6206145;22;20544;-58
2023/12/01 06:30:14;;;;;;;21.58;9.32;;;-0.50;99.90;;;;;;6206381;22;20004;-60
2023/12/01 06:32:44;;;;;;;22.05;10.30;;;-0.50;99.90;;;;;;6207026;23;20005;-59
2023/12/01 06:35:11;;;;;;;17.38;7.65;;;-0.50;99.90;;;;;;6207521;23;20050;-58
2023/12/01 06:37:38;;;;;;;16.05;8.55;;;-0.50;99.90;;;;;;6206585;23;20000;-60
2023/12/01 06:40:11;;;;;;;21.95;8.52;;;-0.50;99.90;;;;;;6206220;23;20005;-60
2023/12/01 06:42:57;;;;;;;16.63;8.63;;;-0.50;99.90;;;;;;6180442;22;20036;-60
2023/12/01 06:45:28;;;;;;;15.02;7.68;;;-0.50;99.90;;;;;;6206303;22;20344;-60
2023/12/01 06:47:55;;;;;;;17.45;9.27;;;-0.50;99.90;;;;;;6207633;22;20464;-60
2023/12/01 06:50:24;;;;;;;15.88;7.68;;;-0.50;99.90;;;;;;6206775;23;20451;-59
2023/12/01 06:52:51;;;;;;;15.80;7.55;;;-0.50;99.90;;;;;;6205478;23;20440;-60
2023/12/01 06:55:17;;;;;;;13.73;6.47;;;-0.50;99.90;;;;;;6207388;23;20444;-60
2023/12/01 06:57:44;;;;;;;16.38;8.45;;;-0.50;99.90;;;;;;6207402;23;20005;-60
2023/12/01 07:00:33;;;;;;;11.23;5.93;;;-0.50;99.90;;;;;;6207500;23;20489;-60
2023/12/01 07:03:00;;;;;;;12.48;6.03;;;-0.50;99.90;;;;;;6179372;23;20004;-60
2023/12/01 07:05:27;;;;;;;14.27;6.35;;;-0.50;99.90;;;;;;6155279;23;20032;-60
2023/12/01 07:07:53;;;;;;;12.82;6.85;;;-0.50;99.90;;;;;;6206109;23;20005;-60
2023/12/01 07:10:21;;;;;;;16.25;7.13;;;-0.50;99.90;;;;;;6206633;23;20001;-60
2023/12/01 07:12:47;;;;;;;9.23;5.05;;;-0.50;99.90;;;;;;6207417;23;20005;-59
2023/12/01 07:15:14;;;;;;;10.75;4.43;;;-0.50;99.90;;;;;;6207285;23;20012;-60
2023/12/01 07:17:40;;;;;;;10.55;5.10;;;-0.50;99.90;;;;;;6206728;23;20058;-60
2023/12/01 07:20:15;;;;;;;10.10;4.20;;;-0.50;99.90;;;;;;6206921;23;20008;-60
2023/12/01 07:22:44;;;;;;;8.80;4.47;;;-0.60;99.90;;;;;;6207457;23;20005;-60
2023/12/01 07:25:21;;;;;;;10.02;4.80;;;-0.60;99.90;;;;;;6207451;23;20012;-60
2023/12/01 07:27:56;;;;;;;12.88;5.50;;;-0.60;99.90;;;;;;6207805;23;19997;-60
2023/12/01 07:30:21;;;;;;;11.80;5.43;;;-0.60;99.90;;;;;;6207776;23;20424;-59
2023/12/01 07:32:48;;;;;;;17.00;6.57;;;-0.60;99.90;;;;;;6208319;23;20054;-59
2023/12/01 07:35:14;;;;;;;12.13;5.80;;;-0.60;99.90;;;;;;6207543;23;20463;-60
2023/12/01 07:37:44;;;;;;;11.10;5.68;;;-0.70;99.90;;;;;;6207074;23;20080;-60
2023/12/01 07:40:11;;;;;;;11.27;5.35;;;-0.70;99.90;;;;;;6208591;23;20444;-59
2023/12/01 07:42:40;;;;;;;10.80;5.47;;;-0.70;99.90;;;;;;6209397;23;20004;-59
2023/12/01 07:45:07;;;;;;;18.65;6.95;;;-0.80;99.90;;;;;;6209357;22;20009;-59
2023/12/01 07:47:33;;;;;;;16.65;6.85;;;-0.70;99.90;;;;;;6209212;23;20001;-59
2023/12/01 07:49:59;;;;;;;12.07;6.55;;;-0.70;99.90;;;;;;6207602;23;20440;-59
2023/12/01 07:52:25;;;;;;;13.02;7.35;;;-0.70;99.90;;;;;;6208732;23;20005;-60
2023/12/01 07:54:51;;;;;;;16.05;7.57;;;-0.70;99.90;;;;;;6209118;23;20004;-59
2023/12/01 07:57:18;;;;;;;12.77;7.07;;;-0.60;99.90;;;;;;6209546;23;20015;-60
2023/12/01 07:59:43;;;;;;;17.40;6.55;;;-0.60;99.90;;;;;;6208977;23;20439;-60
2023/12/01 08:02:09;;;;;;;14.10;6.32;;;-0.50;99.90;;;;;;6208424;23;20012;-59
2023/12/01 08:04:35;;;;;;;12.07;6.20;;;-0.40;99.90;;;;;;6209369;23;20842;-60
2023/12/01 08:07:01;;;;;;;14.18;6.93;;;-0.40;99.90;;;;;;6208604;23;20032;-60
2023/12/01 08:09:31;;;;;;;12.68;6.05;;;-0.40;99.90;;;;;;6208190;23;20513;-60
2023/12/01 08:11:59;;;;;;;10.02;5.50;;;-0.50;99.90;;;;;;6208363;23;20005;-60
2023/12/01 08:14:25;;;;;;;11.82;5.20;;;-0.40;99.90;;;;;;6209160;23;20001;-60
2023/12/01 08:16:54;;;;;;;11.75;4.88;;;-0.30;99.90;;;;;;6209010;23;20053;-59
2023/12/01 08:19:20;;;;;;;9.90;5.40;;;-0.30;99.90;;;;;;6206987;23;20004;-59
2023/12/01 08:21:45;;;;;;;10.88;5.47;;;-0.40;99.90;;;;;;6208425;23;20005;-60
2023/12/01 08:24:11;;;;;;;10.10;5.07;;;-0.40;99.90;;;;;;6208664;23;20034;-59
2023/12/01 08:26:37;;;;;;;11.55;5.47;;;-0.40;99.90;;;;;;6200067;23;20016;-60
2023/12/01 08:29:03;;;;;;;9.80;4.80;;;-0.30;99.90;;;;;;6208672;23;20027;-60
2023/12/01 08:31:30;;;;;;;6.65;3.58;;;-0.30;99.90;;;;;;6208437;23;20269;-59
2023/12/01 08:33:56;;;;;;;11.02;5.00;;;-0.20;99.90;;;;;;6209006;23;20005;-60
2023/12/01 08:36:22;;;;;;;11.52;4.72;;;-0.20;99.90;;;;;;6208462;23;20057;-60
2023/12/01 08:38:48;;;;;;;7.78;3.92;;;-0.20;99.90;;;;;;6208368;23;20009;-59
2023/12/01 08:41:13;;;;;;;8.65;4.13;;;-0.10;99.90;;;;;;6209291;23;20008;-60
2023/12/01 08:43:39;;;;;;;9.10;4.10;;;-0.20;99.90;;;;;;6181856;23;20059;-60
2023/12/01 08:46:05;;;;;;;8.15;3.80;;;-0.10;99.90;;;;;;6208387;23;20001;-60
2023/12/01 08:48:31;;;;;;;5.93;3.42;;;0.00;99.90;;;;;;6208034;23;20328;-60
2023/12/01 08:50:56;;;;;;;10.10;4.22;;;0.00;99.90;;;;;;6207758;23;20008;-60
2023/12/01 08:53:22;;;;;;;6.82;3.22;;;0.00;99.90;;;;;;6208360;23;20578;-59
2023/12/01 08:55:51;;;;;;;6.80;3.40;;;0.00;99.90;;;;;;6208715;22;20080;-60
2023/12/01 08:58:20;;;;;;;5.05;2.95;;;0.00;99.90;;;;;;6209244;23;20010;-59
2023/12/01 09:00:45;;;;;;;7.20;3.38;;;0.00;99.90;;;;;;6207896;23;20071;-60
2023/12/01 09:03:11;;;;;;;6.40;3.35;;;0.10;99.90;;;;;;6209193;23;20043;-60
2023/12/01 09:05:36;;;;;;;7.32;3.28;;;0.00;99.90;;;;;;6208223;23;20005;-59
2023/12/01 09:08:05;;;;;;;6.15;3.47;;;0.00;99.90;;;;;;6208265;23;20064;-60
2023/12/01 09:10:31;;;;;;;7.00;3.72;;;0.00;99.90;;;;;;6207958;23;20007;-60
2023/12/01 09:12:57;;;;;;;10.55;4.82;;;0.00;99.90;;;;;;6208876;23;20080;-60
2023/12/01 09:15:23;;;;;;;10.05;5.00;;;0.00;99.90;;;;;;6208868;23;20437;-60
2023/12/01 09:17:48;;;;;;;11.05;5.18;;;0.00;99.90;;;;;;6208193;23;20022;-60
2023/12/01 09:20:14;;;;;;;9.70;4.70;;;-0.10;99.90;;;;;;6206498;23;20011;-59
2023/12/01 09:22:40;;;;;;;8.45;4.18;;;-0.10;99.90;;;;;;6208564;23;20015;-60
2023/12/01 09:25:06;;;;;;;9.00;4.05;;;-0.20;99.90;;;;;;6208250;23;20008;-60
2023/12/01 09:27:32;;;;;;;8.50;3.83;;;-0.20;99.90;;;;;;6208817;23;20001;-60
2023/12/01 09:29:58;;;;;;;8.27;3.15;;;-0.30;99.90;;;;;;6204373;22;20061;-60
2023/12/01 09:32:23;;;;;;;8.70;3.58;;;-0.20;99.90;;;;;;6208363;23;19996;-60
2023/12/01 09:34:49;;;;;;;7.95;4.28;;;-0.20;99.90;;;;;;6207840;23;20011;-60
2023/12/01 09:37:15;;;;;;;10.98;5.03;;;-0.20;99.90;;;;;;6207456;23;20001;-58
2023/12/01 09:39:43;;;;;;;10.00;3.28;;;-0.10;99.90;;;;;;6208446;23;20004;-60
2023/12/01 09:42:09;;;;;;;6.47;3.05;;;-0.20;99.90;;;;;;6208084;23;20005;-60
2023/12/01 09:44:37;;;;;;;7.55;3.38;;;-0.20;99.90;;;;;;6208294;23;20062;-59
2023/12/01 09:47:04;;;;;;;9.20;4.35;;;-0.20;99.90;;;;;;6207976;23;20011;-59
2023/12/01 09:49:33;;;;;;;6.88;3.67;;;-0.10;99.90;;;;;;6181430;22;20356;-60
2023/12/01 09:52:01;;;;;;;7.65;3.75;;;0.00;99.90;;;;;;6208258;23;20013;-59
2023/12/01 09:54:27;;;;;;;7.90;4.20;;;0.10;99.90;;;;;;6207720;23;20075;-60
2023/12/01 09:56:53;;;;;;;10.77;5.13;;;0.10;99.90;;;;;;6207338;23;20054;-60
2023/12/01 09:59:20;;;;;;;8.98;4.43;;;0.10;99.90;;;;;;6207710;23;20012;-59
2023/12/01 10:01:47;;;;;;;13.02;4.57;;;0.10;99.90;;;;;;6208398;23;20332;-59
2023/12/01 10:04:13;;;;;;;6.72;3.75;;;0.10;99.90;;;;;;6207885;23;20005;-60
2023/12/01 10:06:39;;;;;;;9.55;4.72;;;0.10;99.90;;;;;;6207533;23;20648;-59
2023/12/01 10:09:09;;;;;;;11.75;4.70;;;0.20;99.90;;;;;;6207622;23;20032;-60
2023/12/01 10:11:36;;;;;;;9.48;4.97;;;0.20;99.90;;;;;;6208236;23;20423;-60
2023/12/01 10:14:08;;;;;;;10.23;4.63;;;0.20;99.90;;;;;;6207251;23;20000;-59
2023/12/01 10:16:38;;;;;;;10.52;4.47;;;0.30;99.90;;;;;;6208579;23;20736;-60
2023/12/01 10:19:05;;;;;;;7.13;4.15;;;0.30;99.90;;;;;;6206897;23;20028;-59
2023/12/01 10:21:40;;;;;;;8.45;3.92;;;0.30;99.90;;;;;;6208256;23;20050;-60
2023/12/01 10:24:16;;;;;;;7.53;4.25;;;0.40;99.90;;;;;;6208424;23;20385;-60
2023/12/01 10:26:43;;;;;;;11.50;4.50;;;0.30;99.90;;;;;;6208018;23;20028;-59
2023/12/01 10:29:29;;;;;;;10.77;4.78;;;0.40;99.90;;;;;;6204647;22;20004;-60
2023/12/01 10:32:07;;;;;;;9.07;4.15;;;0.40;99.90;;;;;;6208680;23;20071;-60
2023/12/01 10:34:33;;;;;;;12.27;5.13;;;0.30;99.90;;;;;;6207563;23;20005;-59
2023/12/01 10:37:00;;;;;;;7.40;4.22;;;0.30;99.90;;;;;;6207455;22;20099;-60
2023/12/01 10:39:27;;;;;;;10.40;4.28;;;0.40;99.90;;;;;;6207917;23;20082;-59
2023/12/01 10:41:57;;;;;;;10.50;4.35;;;0.40;99.90;;;;;;6208555;23;20079;-59
2023/12/01 10:44:27;;;;;;;8.93;3.92;;;0.40;99.90;;;;;;6208059;23;20001;-59
2023/12/01 10:46:54;;;;;;;7.88;3.80;;;0.40;99.90;;;;;;6208116;23;20030;-59
2023/12/01 10:49:21;;;;;;;9.13;4.45;;;0.40;99.90;;;;;;6206897;23;20012;-58
2023/12/01 10:51:55;;;;;;;7.68;3.65;;;0.40;99.90;;;;;;6207428;23;20001;-60
2023/12/01 10:54:23;;;;;;;8.93;4.13;;;0.40;99.90;;;;;;6208375;23;20001;-59
2023/12/01 10:57:03;;;;;;;15.50;4.78;;;0.40;99.90;;;;;;6208501;23;20005;-59
2023/12/01 10:59:29;;;;;;;7.90;3.92;;;0.40;99.90;;;;;;6206741;23;20004;-58
2023/12/01 11:01:58;;;;;;;8.43;4.20;;;0.50;99.90;;;;;;6207148;22;20121;-57
2023/12/01 11:04:29;;;;;;;9.95;3.90;;;0.40;99.90;;;;;;6207986;23;20005;-58
2023/12/01 11:07:09;;;;;;;10.07;4.80;;;0.50;99.90;;;;;;6208101;23;20001;-58
2023/12/01 11:10:13;;;;;;;9.77;4.47;;;0.40;99.90;;;;;;6180424;23;20009;-59
2023/12/01 11:12:53;;;;;;;7.25;3.85;;;0.50;99.90;;;;;;6204789;23;20436;-56
2023/12/01 11:15:26;;;;;;;8.75;3.80;;;0.50;99.90;;;;;;6179095;23;20009;-59
2023/12/01 11:17:51;;;;;;;8.27;4.85;;;0.50;99.90;;;;;;6205314;23;20890;-59
2023/12/01 11:20:37;;;;;;;8.35;4.63;;;0.60;99.90;;;;;;6204900;23;20005;-59
2023/12/01 11:23:23;;;;;;;8.70;4.25;;;0.60;99.90;;;;;;6206135;23;20024;-59
2023/12/01 11:26:05;;;;;;;11.23;4.75;;;0.60;99.90;;;;;;6206482;23;20389;-59
2023/12/01 11:31:20;;;;;;;15.27;4.32;;;0.60;99.90;;;;;;6198406;22;20013;-59
2023/12/01 11:33:50;;;;;;;8.43;4.63;;;0.60;99.90;;;;;;6206178;23;20005;-59
2023/12/01 11:36:24;;;;;;;10.98;5.03;;;0.70;99.90;;;;;;6207557;23;20428;-59
2023/12/01 11:39:16;;;;;;;8.30;3.90;;;0.70;99.90;;;;;;6206427;23;20424;-59
2023/12/01 11:41:41;;;;;;;8.95;4.07;;;0.70;99.90;;;;;;6206891;23;20374;-59
2023/12/01 11:44:29;;;;;;;9.10;4.80;;;0.70;99.90;;;;;;6207363;23;20001;-59
2023/12/01 11:46:56;;;;;;;7.88;4.13;;;0.60;99.90;;;;;;6207249;23;19996;-59
2023/12/01 11:49:30;;;;;;;11.38;4.75;;;0.60;99.90;;;;;;6206696;23;20001;-60
2023/12/01 11:52:03;;;;;;;9.77;4.50;;;0.70;99.90;;;;;;6207111;23;20076;-59
2023/12/01 11:54:36;;;;;;;7.00;3.88;;;0.70;99.90;;;;;;6204169;23;20007;-59
2023/12/01 11:57:08;;;;;;;10.57;4.57;;;0.70;99.90;;;;;;6204066;23;20005;-59
2023/12/01 11:59:36;;;;;;;11.13;5.55;;;0.70;99.90;;;;;;6206359;23;20093;-59
2023/12/01 12:02:02;;;;;;;9.70;5.13;;;0.80;99.90;;;;;;6206586;23;20009;-59
2023/12/01 12:04:28;;;;;;;8.40;5.05;;;0.70;99.90;;;;;;6206735;23;20339;-58
2023/12/01 12:06:55;;;;;;;9.43;4.78;;;0.70;99.90;;;;;;6207314;23;20015;-58
2023/12/01 12:09:22;;;;;;;12.30;5.70;;;0.70;99.90;;;;;;6206144;23;19997;-59
2023/12/01 12:11:52;;;;;;;8.63;4.15;;;0.70;99.90;;;;;;6206459;23;19997;-59
2023/12/01 12:14:22;;;;;;;12.02;5.32;;;0.70;99.90;;;;;;6207311;23;20005;-59
2023/12/01 12:16:48;;;;;;;11.23;4.78;;;0.70;99.90;;;;;;6206933;23;20019;-59
2023/12/01 12:19:14;;;;;;;8.27;4.40;;;0.80;99.90;;;;;;6206672;23;20079;-58
2023/12/01 12:21:40;;;;;;;9.48;4.70;;;0.80;99.90;;;;;;6207450;23;20407;-58
2023/12/01 12:24:06;;;;;;;9.98;4.22;;;0.80;99.90;;;;;;6205729;23;20087;-59
2023/12/01 12:26:31;;;;;;;10.48;5.07;;;0.80;99.90;;;;;;6207233;23;20036;-58
2023/12/01 12:28:59;;;;;;;11.00;4.28;;;0.90;99.90;;;;;;6207050;23;20000;-58
2023/12/01 12:31:26;;;;;;;11.52;5.35;;;0.90;99.90;;;;;;6186569;23;20108;-59
2023/12/01 12:33:53;;;;;;;10.13;4.53;;;0.90;99.90;;;;;;6206525;23;20008;-59
2023/12/01 12:36:21;;;;;;;13.40;4.35;;;0.90;99.90;;;;;;6207979;23;20004;-59
2023/12/01 12:38:48;;;;;;;6.28;3.72;;;0.90;99.90;;;;;;6206993;22;20001;-59
2023/12/01 12:41:27;;;;;;;10.85;4.47;;;1.00;99.90;;;;;;6207236;23;20008;-59
2023/12/01 12:43:58;;;;;;;7.53;4.13;;;1.20;99.90;;;;;;6207745;23;20352;-59
2023/12/01 12:46:25;;;;;;;10.10;3.92;;;1.20;99.90;;;;;;6207804;23;20001;-59